sensor_id;sensor_type;location;lat;lon;timestamp;temperature;humidity
13052;DHT22;6592;47.484;9.726;2023-06-24T00:01:00;18.00;99.90
13052;DHT22;6592;47.484;9.726;2023-06-24T00:03:29;18.00;99.90
13052;DHT22;6592;47.484;9.726;2023-06-24T00:05:59;17.90;99.90
13052;DHT22;6592;47.484;9.726;2023-06-24T00:08:30;17.90;99.90
13052;DHT22;6592;47.484;9.726;2023-06-24T00:11:01;17.80;99.90
13052;DHT22;6592;47.484;9.726;2023-06-24T00:13:30;17.80;99.90
13052;DHT22;6592;47.484;9.726;2023-06-24T00:16:01;17.80;99.90
13052;DHT22;6592;47.484;9.726;2023-06-24T00:18:30;17.70;99.90
13052;DHT22;6592;47.484;9.726;2023-06-24T00:20:58;17.70;99.90
13052;DHT22;6592;47.484;9.726;2023-06-24T00:23:29;17.60;99.90
13052;DHT22;6592;47.484;9.726;2023-06-24T00:26:01;17.50;99.90
13052;DHT22;6592;47.484;9.726;2023-06-24T00:28:30;17.50;99.90
13052;DHT22;6592;47.484;9.726;2023-06-24T00:31:00;17.40;99.90
13052;DHT22;6592;47.484;9.726;2023-06-24T00:33:31;17.40;99.90
13052;DHT22;6592;47.484;9.726;2023-06-24T00:36:04;17.30;99.90
13052;DHT22;6592;47.484;9.726;2023-06-24T00:38:36;17.20;99.90
13052;DHT22;6592;47.484;9.726;2023-06-24T00:41:05;17.20;99.90
13052;DHT22;6592;47.484;9.726;2023-06-24T00:43:34;17.20;99.90
13052;DHT22;6592;47.484;9.726;2023-06-24T00:46:06;17.20;99.90
13052;DHT22;6592;47.484;9.726;2023-06-24T00:48:35;17.20;99.90
13052;DHT22;6592;47.484;9.726;2023-06-24T00:51:04;17.10;99.90
13052;DHT22;6592;47.484;9.726;2023-06-24T00:53:33;17.10;99.90
13052;DHT22;6592;47.484;9.726;2023-06-24T00:56:02;17.10;99.90
13052;DHT22;6592;47.484;9.726;2023-06-24T00:58:33;17.00;99.90
13052;DHT22;6592;47.484;9.726;2023-06-24T01:01:05;17.00;99.90
13052;DHT22;6592;47.484;9.726;2023-06-24T01:03:36;16.90;99.90
13052;DHT22;6592;47.484;9.726;2023-06-24T01:06:05;16.90;99.90
13052;DHT22;6592;47.484;9.726;2023-06-24T01:08:34;16.80;99.90
13052;DHT22;6592;47.484;9.726;2023-06-24T01:11:03;16.70;99.90
13052;DHT22;6592;47.484;9.726;2023-06-24T01:13:32;16.60;99.90
13052;DHT22;6592;47.484;9.726;2023-06-24T01:16:09;16.60;99.90
13052;DHT22;6592;47.484;9.726;2023-06-24T01:18:42;16.50;99.90
13052;DHT22;6592;47.484;9.726;2023-06-24T01:21:18;16.50;99.90
13052;DHT22;6592;47.484;9.726;2023-06-24T01:24:16;16.60;99.90
13052;DHT22;6592;47.484;9.726;2023-06-24T01:27:08;16.60;99.90
13052;DHT22;6592;47.484;9.726;2023-06-24T01:29:56;16.50;99.90
13052;DHT22;6592;47.484;9.726;2023-06-24T01:32:29;16.50;99.90
13052;DHT22;6592;47.484;9.726;2023-06-24T01:35:05;16.50;99.90
13052;DHT22;6592;47.484;9.726;2023-06-24T01:37:40;16.50;99.90
13052;DHT22;6592;47.484;9.726;2023-06-24T01:40:12;16.40;99.90
13052;DHT22;6592;47.484;9.726;2023-06-24T01:42:45;16.40;99.90
13052;DHT22;6592;47.484;9.726;2023-06-24T01:45:17;16.30;99.90
13052;DHT22;6592;47.484;9.726;2023-06-24T01:47:49;16.30;99.90
13052;DHT22;6592;47.484;9.726;2023-06-24T01:50:22;16.30;99.90
13052;DHT22;6592;47.484;9.726;2023-06-24T01:52:53;16.30;99.90
13052;DHT22;6592;47.484;9.726;2023-06-24T01:55:24;16.30;99.90
13052;DHT22;6592;47.484;9.726;2023-06-24T01:57:54;16.30;99.90
13052;DHT22;6592;47.484;9.726;2023-06-24T02:00:26;16.30;99.90
13052;DHT22;6592;47.484;9.726;2023-06-24T02:02:57;16.30;99.90
13052;DHT22;6592;47.484;9.726;2023-06-24T02:05:26;16.30;99.90
13052;DHT22;6592;47.484;9.726;2023-06-24T02:07:56;16.30;99.90
13052;DHT22;6592;47.484;9.726;2023-06-24T02:10:26;16.20;99.90
13052;DHT22;6592;47.484;9.726;2023-06-24T02:13:01;16.20;99.90
13052;DHT22;6592;47.484;9.726;2023-06-24T02:15:33;16.20;99.90
13052;DHT22;6592;47.484;9.726;2023-06-24T02:18:05;16.20;99.90
13052;DHT22;6592;47.484;9.726;2023-06-24T02:20:38;16.10;99.90
13052;DHT22;6592;47.484;9.726;2023-06-24T02:23:10;16.10;99.90
13052;DHT22;6592;47.484;9.726;2023-06-24T02:25:40;16.10;99.90
13052;DHT22;6592;47.484;9.726;2023-06-24T02:28:10;16.10;99.90
13052;DHT22;6592;47.484;9.726;2023-06-24T02:30:41;16.10;99.90
13052;DHT22;6592;47.484;9.726;2023-06-24T02:33:12;16.10;99.90
13052;DHT22;6592;47.484;9.726;2023-06-24T02:35:41;16.20;99.90
13052;DHT22;6592;47.484;9.726;2023-06-24T02:38:10;16.10;99.90
13052;DHT22;6592;47.484;9.726;2023-06-24T02:40:39;16.20;99.90
13052;DHT22;6592;47.484;9.726;2023-06-24T02:43:08;16.20;99.90
13052;DHT22;6592;47.484;9.726;2023-06-24T02:45:38;16.10;99.90
13052;DHT22;6592;47.484;9.726;2023-06-24T02:48:09;16.20;99.90
13052;DHT22;6592;47.484;9.726;2023-06-24T02:50:40;16.20;99.90
13052;DHT22;6592;47.484;9.726;2023-06-24T02:53:11;16.20;99.90
13052;DHT22;6592;47.484;9.726;2023-06-24T02:55:43;16.20;99.90
13052;DHT22;6592;47.484;9.726;2023-06-24T02:58:14;16.30;99.90
13052;DHT22;6592;47.484;9.726;2023-06-24T03:00:43;16.30;99.90
13052;DHT22;6592;47.484;9.726;2023-06-24T03:03:17;16.30;99.90
13052;DHT22;6592;47.484;9.726;2023-06-24T03:05:48;16.30;99.90
13052;DHT22;6592;47.484;9.726;2023-06-24T03:08:18;16.30;99.90
13052;DHT22;6592;47.484;9.726;2023-06-24T03:10:47;16.30;99.90
13052;DHT22;6592;47.484;9.726;2023-06-24T03:13:19;16.40;99.90
13052;DHT22;6592;47.484;9.726;2023-06-24T03:15:47;16.50;99.90
13052;DHT22;6592;47.484;9.726;2023-06-24T03:18:17;16.50;99.90
13052;DHT22;6592;47.484;9.726;2023-06-24T03:20:48;16.50;99.90
13052;DHT22;6592;47.484;9.726;2023-06-24T03:23:20;16.60;99.90
13052;DHT22;6592;47.484;9.726;2023-06-24T03:25:49;16.60;99.90
13052;DHT22;6592;47.484;9.726;2023-06-24T03:28:18;16.60;99.90
13052;DHT22;6592;47.484;9.726;2023-06-24T03:30:47;16.60;99.90
13052;DHT22;6592;47.484;9.726;2023-06-24T03:33:16;16.70;99.90
13052;DHT22;6592;47.484;9.726;2023-06-24T03:35:45;16.70;99.90
13052;DHT22;6592;47.484;9.726;2023-06-24T03:38:16;16.70;99.90
13052;DHT22;6592;47.484;9.726;2023-06-24T03:40:45;16.70;99.90
13052;DHT22;6592;47.484;9.726;2023-06-24T03:43:15;16.70;99.90
13052;DHT22;6592;47.484;9.726;2023-06-24T03:45:44;16.70;99.90
13052;DHT22;6592;47.484;9.726;2023-06-24T03:48:13;16.70;99.90
13052;DHT22;6592;47.484;9.726;2023-06-24T03:50:41;16.80;99.90
13052;DHT22;6592;47.484;9.726;2023-06-24T03:53:11;16.80;99.90
13052;DHT22;6592;47.484;9.726;2023-06-24T03:55:45;16.80;99.90
13052;DHT22;6592;47.484;9.726;2023-06-24T03:58:13;16.80;99.90
13052;DHT22;6592;47.484;9.726;2023-06-24T04:00:43;16.90;99.90
13052;DHT22;6592;47.484;9.726;2023-06-24T04:03:13;16.90;99.90
13052;DHT22;6592;47.484;9.726;2023-06-24T04:05:43;16.90;99.90
13052;DHT22;6592;47.484;9.726;2023-06-24T04:08:11;16.90;99.90
13052;DHT22;6592;47.484;9.726;2023-06-24T04:10:41;16.90;99.90
13052;DHT22;6592;47.484;9.726;2023-06-24T04:13:12;16.90;99.90
13052;DHT22;6592;47.484;9.726;2023-06-24T04:15:42;16.90;99.90
13052;DHT22;6592;47.484;9.726;2023-06-24T04:18:10;17.00;99.90
13052;DHT22;6592;47.484;9.726;2023-06-24T04:20:39;17.00;99.90
13052;DHT22;6592;47.484;9.726;2023-06-24T04:23:08;17.00;99.90
13052;DHT22;6592;47.484;9.726;2023-06-24T04:25:38;17.00;99.90
13052;DHT22;6592;47.484;9.726;2023-06-24T04:28:06;17.00;99.90
13052;DHT22;6592;47.484;9.726;2023-06-24T04:30:37;17.00;99.90
13052;DHT22;6592;47.484;9.726;2023-06-24T04:33:06;17.00;99.90
13052;DHT22;6592;47.484;9.726;2023-06-24T04:35:35;17.00;99.90
13052;DHT22;6592;47.484;9.726;2023-06-24T04:38:05;17.00;99.90
13052;DHT22;6592;47.484;9.726;2023-06-24T04:40:33;17.10;99.90
13052;DHT22;6592;47.484;9.726;2023-06-24T04:43:05;17.10;99.90
13052;DHT22;6592;47.484;9.726;2023-06-24T04:45:34;17.10;99.90
13052;DHT22;6592;47.484;9.726;2023-06-24T04:48:06;17.10;99.90
13052;DHT22;6592;47.484;9.726;2023-06-24T04:50:35;17.20;99.90
13052;DHT22;6592;47.484;9.726;2023-06-24T04:53:05;17.20;99.90
13052;DHT22;6592;47.484;9.726;2023-06-24T04:55:34;17.20;99.90
13052;DHT22;6592;47.484;9.726;2023-06-24T04:58:05;17.30;99.90
13052;DHT22;6592;47.484;9.726;2023-06-24T05:00:34;17.30;99.90
13052;DHT22;6592;47.484;9.726;2023-06-24T05:03:05;17.30;99.90
13052;DHT22;6592;47.484;9.726;2023-06-24T05:05:35;17.40;99.90
13052;DHT22;6592;47.484;9.726;2023-06-24T05:08:04;17.50;99.90
13052;DHT22;6592;47.484;9.726;2023-06-24T05:10:33;17.50;99.90
13052;DHT22;6592;47.484;9.726;2023-06-24T05:13:02;17.70;99.90
13052;DHT22;6592;47.484;9.726;2023-06-24T05:15:34;17.80;99.90
13052;DHT22;6592;47.484;9.726;2023-06-24T05:18:04;17.80;99.90
13052;DHT22;6592;47.484;9.726;2023-06-24T05:20:34;17.80;99.90
13052;DHT22;6592;47.484;9.726;2023-06-24T05:23:04;17.90;99.90
13052;DHT22;6592;47.484;9.726;2023-06-24T05:25:33;17.90;99.90
13052;DHT22;6592;47.484;9.726;2023-06-24T05:28:03;17.90;99.90
13052;DHT22;6592;47.484;9.726;2023-06-24T05:30:32;17.90;99.90
13052;DHT22;6592;47.484;9.726;2023-06-24T05:33:01;18.00;99.90
13052;DHT22;6592;47.484;9.726;2023-06-24T05:35:31;18.10;99.90
13052;DHT22;6592;47.484;9.726;2023-06-24T05:38:01;18.20;99.90
13052;DHT22;6592;47.484;9.726;2023-06-24T05:40:29;18.30;99.90
13052;DHT22;6592;47.484;9.726;2023-06-24T05:42:59;18.30;99.90
13052;DHT22;6592;47.484;9.726;2023-06-24T05:45:28;18.40;99.90
13052;DHT22;6592;47.484;9.726;2023-06-24T05:47:57;18.30;99.90
13052;DHT22;6592;47.484;9.726;2023-06-24T05:50:26;18.40;99.90
13052;DHT22;6592;47.484;9.726;2023-06-24T05:52:58;18.30;99.90
13052;DHT22;6592;47.484;9.726;2023-06-24T05:55:27;18.30;99.90
13052;DHT22;6592;47.484;9.726;2023-06-24T05:57:56;18.40;99.90
13052;DHT22;6592;47.484;9.726;2023-06-24T06:00:25;18.40;99.90
13052;DHT22;6592;47.484;9.726;2023-06-24T06:02:54;18.50;99.90
13052;DHT22;6592;47.484;9.726;2023-06-24T06:05:23;18.50;99.90
13052;DHT22;6592;47.484;9.726;2023-06-24T06:07:52;18.70;99.90
13052;DHT22;6592;47.484;9.726;2023-06-24T06:10:23;18.90;99.90
13052;DHT22;6592;47.484;9.726;2023-06-24T06:12:52;19.00;99.90
13052;DHT22;6592;47.484;9.726;2023-06-24T06:15:21;19.00;99.90
13052;DHT22;6592;47.484;9.726;2023-06-24T06:17:50;19.10;99.90
13052;DHT22;6592;47.484;9.726;2023-06-24T06:20:19;19.30;99.90
13052;DHT22;6592;47.484;9.726;2023-06-24T06:22:49;19.40;99.90
13052;DHT22;6592;47.484;9.726;2023-06-24T06:25:19;19.60;99.90
13052;DHT22;6592;47.484;9.726;2023-06-24T06:27:50;19.80;99.90
13052;DHT22;6592;47.484;9.726;2023-06-24T06:30:18;20.00;99.90
13052;DHT22;6592;47.484;9.726;2023-06-24T06:32:47;20.20;99.90
13052;DHT22;6592;47.484;9.726;2023-06-24T06:35:17;20.40;99.90
13052;DHT22;6592;47.484;9.726;2023-06-24T06:37:48;20.60;99.90
13052;DHT22;6592;47.484;9.726;2023-06-24T06:40:23;20.80;99.90
13052;DHT22;6592;47.484;9.726;2023-06-24T06:42:55;21.00;99.90
13052;DHT22;6592;47.484;9.726;2023-06-24T06:45:24;21.10;99.90
13052;DHT22;6592;47.484;9.726;2023-06-24T06:47:53;21.20;99.90
13052;DHT22;6592;47.484;9.726;2023-06-24T06:50:22;21.40;99.90
13052;DHT22;6592;47.484;9.726;2023-06-24T06:52:50;21.50;99.90
13052;DHT22;6592;47.484;9.726;2023-06-24T06:55:20;21.30;99.90
13052;DHT22;6592;47.484;9.726;2023-06-24T06:57:51;21.20;99.90
13052;DHT22;6592;47.484;9.726;2023-06-24T07:00:21;21.30;99.90
13052;DHT22;6592;47.484;9.726;2023-06-24T07:02:52;21.50;99.90
13052;DHT22;6592;47.484;9.726;2023-06-24T07:05:21;21.70;99.90
13052;DHT22;6592;47.484;9.726;2023-06-24T07:07:50;22.00;99.90
13052;DHT22;6592;47.484;9.726;2023-06-24T07:10:21;22.30;99.90
13052;DHT22;6592;47.484;9.726;2023-06-24T07:12:50;22.50;99.90
13052;DHT22;6592;47.484;9.726;2023-06-24T07:15:26;22.50;99.90
13052;DHT22;6592;47.484;9.726;2023-06-24T07:17:56;22.60;99.90
13052;DHT22;6592;47.484;9.726;2023-06-24T07:20:25;22.70;99.90
13052;DHT22;6592;47.484;9.726;2023-06-24T07:22:54;22.60;99.90
13052;DHT22;6592;47.484;9.726;2023-06-24T07:25:24;22.70;99.90
13052;DHT22;6592;47.484;9.726;2023-06-24T07:27:53;22.70;99.90
13052;DHT22;6592;47.484;9.726;2023-06-24T07:30:22;22.80;99.90
13052;DHT22;6592;47.484;9.726;2023-06-24T07:32:56;22.70;99.90
13052;DHT22;6592;47.484;9.726;2023-06-24T07:35:25;22.90;99.90
13052;DHT22;6592;47.484;9.726;2023-06-24T07:37:53;23.10;99.90
13052;DHT22;6592;47.484;9.726;2023-06-24T07:40:22;23.40;99.90
13052;DHT22;6592;47.484;9.726;2023-06-24T07:42:52;24.10;99.90
13052;DHT22;6592;47.484;9.726;2023-06-24T07:45:22;25.20;99.90
13052;DHT22;6592;47.484;9.726;2023-06-24T07:47:52;26.70;99.90
13052;DHT22;6592;47.484;9.726;2023-06-24T07:50:25;28.10;99.90
13052;DHT22;6592;47.484;9.726;2023-06-24T07:52:54;28.70;99.90
13052;DHT22;6592;47.484;9.726;2023-06-24T07:55:23;29.50;99.90
13052;DHT22;6592;47.484;9.726;2023-06-24T07:57:52;30.10;99.90
13052;DHT22;6592;47.484;9.726;2023-06-24T08:00:21;30.40;99.90
13052;DHT22;6592;47.484;9.726;2023-06-24T08:02:51;31.00;99.90
13052;DHT22;6592;47.484;9.726;2023-06-24T08:05:21;31.60;99.90
13052;DHT22;6592;47.484;9.726;2023-06-24T08:07:52;31.90;99.90
13052;DHT22;6592;47.484;9.726;2023-06-24T08:10:21;32.30;99.90
13052;DHT22;6592;47.484;9.726;2023-06-24T08:12:50;33.20;98.70
13052;DHT22;6592;47.484;9.726;2023-06-24T08:15:19;33.70;98.50
13052;DHT22;6592;47.484;9.726;2023-06-24T08:17:51;34.30;96.00
13052;DHT22;6592;47.484;9.726;2023-06-24T08:20:20;34.80;95.10
13052;DHT22;6592;47.484;9.726;2023-06-24T08:22:50;35.10;93.10
13052;DHT22;6592;47.484;9.726;2023-06-24T08:25:21;35.60;91.90
13052;DHT22;6592;47.484;9.726;2023-06-24T08:27:50;36.00;90.80
13052;DHT22;6592;47.484;9.726;2023-06-24T08:30:20;36.40;85.70
13052;DHT22;6592;47.484;9.726;2023-06-24T08:32:50;36.60;85.10
13052;DHT22;6592;47.484;9.726;2023-06-24T08:35:19;37.00;84.00
13052;DHT22;6592;47.484;9.726;2023-06-24T08:37:48;37.20;81.30
13052;DHT22;6592;47.484;9.726;2023-06-24T08:40:17;37.40;77.30
13052;DHT22;6592;47.484;9.726;2023-06-24T08:42:48;37.70;75.00
13052;DHT22;6592;47.484;9.726;2023-06-24T08:45:17;38.00;75.70
13052;DHT22;6592;47.484;9.726;2023-06-24T08:47:46;37.90;77.00
13052;DHT22;6592;47.484;9.726;2023-06-24T08:50:16;37.80;76.00
13052;DHT22;6592;47.484;9.726;2023-06-24T08:52:51;38.10;73.60
13052;DHT22;6592;47.484;9.726;2023-06-24T08:55:23;38.20;70.90
13052;DHT22;6592;47.484;9.726;2023-06-24T08:57:54;38.20;70.20
13052;DHT22;6592;47.484;9.726;2023-06-24T09:00:31;38.20;72.30
13052;DHT22;6592;47.484;9.726;2023-06-24T09:03:00;38.50;70.20
13052;DHT22;6592;47.484;9.726;2023-06-24T09:05:31;38.50;67.20
13052;DHT22;6592;47.484;9.726;2023-06-24T09:08:00;38.50;67.80
13052;DHT22;6592;47.484;9.726;2023-06-24T09:10:30;38.60;66.80
13052;DHT22;6592;47.484;9.726;2023-06-24T09:13:03;38.70;65.50
13052;DHT22;6592;47.484;9.726;2023-06-24T09:15:32;38.90;65.70
13052;DHT22;6592;47.484;9.726;2023-06-24T09:18:03;39.00;63.50
13052;DHT22;6592;47.484;9.726;2023-06-24T09:20:33;38.90;61.80
13052;DHT22;6592;47.484;9.726;2023-06-24T09:23:07;39.20;62.10
13052;DHT22;6592;47.484;9.726;2023-06-24T09:25:35;39.20;61.00
13052;DHT22;6592;47.484;9.726;2023-06-24T09:28:06;39.30;61.10
13052;DHT22;6592;47.484;9.726;2023-06-24T09:30:35;39.50;61.50
13052;DHT22;6592;47.484;9.726;2023-06-24T09:33:05;39.20;59.50
13052;DHT22;6592;47.484;9.726;2023-06-24T09:35:37;39.30;58.00
13052;DHT22;6592;47.484;9.726;2023-06-24T09:38:05;39.30;58.60
13052;DHT22;6592;47.484;9.726;2023-06-24T09:40:35;39.40;57.80
13052;DHT22;6592;47.484;9.726;2023-06-24T09:43:08;39.60;58.40
13052;DHT22;6592;47.484;9.726;2023-06-24T09:45:49;39.70;58.50
13052;DHT22;6592;47.484;9.726;2023-06-24T09:48:19;39.70;56.10
13052;DHT22;6592;47.484;9.726;2023-06-24T09:50:49;39.70;56.70
13052;DHT22;6592;47.484;9.726;2023-06-24T09:53:18;39.80;56.40
13052;DHT22;6592;47.484;9.726;2023-06-24T09:55:55;39.90;56.40
13052;DHT22;6592;47.484;9.726;2023-06-24T09:58:26;39.70;56.10
13052;DHT22;6592;47.484;9.726;2023-06-24T10:01:02;39.90;57.30
13052;DHT22;6592;47.484;9.726;2023-06-24T10:03:33;39.60;55.50
13052;DHT22;6592;47.484;9.726;2023-06-24T10:06:05;39.10;55.30
13052;DHT22;6592;47.484;9.726;2023-06-24T10:08:43;38.90;56.60
13052;DHT22;6592;47.484;9.726;2023-06-24T10:11:13;38.70;54.90
13052;DHT22;6592;47.484;9.726;2023-06-24T10:13:46;38.10;55.20
13052;DHT22;6592;47.484;9.726;2023-06-24T10:16:16;36.80;55.60
13052;DHT22;6592;47.484;9.726;2023-06-24T10:18:46;35.90;57.80
13052;DHT22;6592;47.484;9.726;2023-06-24T10:21:16;35.20;60.00
13052;DHT22;6592;47.484;9.726;2023-06-24T10:23:52;35.20;59.30
13052;DHT22;6592;47.484;9.726;2023-06-24T10:26:25;35.70;58.60
13052;DHT22;6592;47.484;9.726;2023-06-24T10:29:12;35.60;57.90
13052;DHT22;6592;47.484;9.726;2023-06-24T10:31:52;35.70;58.50
13052;DHT22;6592;47.484;9.726;2023-06-24T10:34:42;35.50;57.70
13052;DHT22;6592;47.484;9.726;2023-06-24T10:37:17;35.80;56.90
13052;DHT22;6592;47.484;9.726;2023-06-24T10:39:51;35.80;57.30
13052;DHT22;6592;47.484;9.726;2023-06-24T10:42:37;36.00;55.60
13052;DHT22;6592;47.484;9.726;2023-06-24T10:45:19;36.00;53.90
13052;DHT22;6592;47.484;9.726;2023-06-24T10:47:49;35.70;55.40
13052;DHT22;6592;47.484;9.726;2023-06-24T10:50:23;35.90;56.40
13052;DHT22;6592;47.484;9.726;2023-06-24T10:52:53;36.10;54.10
13052;DHT22;6592;47.484;9.726;2023-06-24T10:55:24;36.60;56.70
13052;DHT22;6592;47.484;9.726;2023-06-24T10:57:53;37.00;55.50
13052;DHT22;6592;47.484;9.726;2023-06-24T11:00:24;37.30;54.10
13052;DHT22;6592;47.484;9.726;2023-06-24T11:02:53;36.80;53.40
13052;DHT22;6592;47.484;9.726;2023-06-24T11:05:23;36.40;53.20
13052;DHT22;6592;47.484;9.726;2023-06-24T11:07:52;36.20;52.50
13052;DHT22;6592;47.484;9.726;2023-06-24T11:10:24;36.00;55.20
13052;DHT22;6592;47.484;9.726;2023-06-24T11:12:53;35.90;54.40
13052;DHT22;6592;47.484;9.726;2023-06-24T11:15:25;36.00;54.90
13052;DHT22;6592;47.484;9.726;2023-06-24T11:17:54;36.10;54.30
13052;DHT22;6592;47.484;9.726;2023-06-24T11:20:23;36.20;53.70
13052;DHT22;6592;47.484;9.726;2023-06-24T11:22:53;36.10;54.50
13052;DHT22;6592;47.484;9.726;2023-06-24T11:25:22;36.30;54.30
13052;DHT22;6592;47.484;9.726;2023-06-24T11:27:51;36.30;53.30
13052;DHT22;6592;47.484;9.726;2023-06-24T11:30:22;36.30;53.40
13052;DHT22;6592;47.484;9.726;2023-06-24T11:32:52;36.70;54.10
13052;DHT22;6592;47.484;9.726;2023-06-24T11:35:22;37.00;51.10
13052;DHT22;6592;47.484;9.726;2023-06-24T11:37:51;37.10;49.80
13052;DHT22;6592;47.484;9.726;2023-06-24T11:40:20;37.20;51.60
13052;DHT22;6592;47.484;9.726;2023-06-24T11:42:51;36.80;49.80
13052;DHT22;6592;47.484;9.726;2023-06-24T11:45:21;36.60;50.30
13052;DHT22;6592;47.484;9.726;2023-06-24T11:48:01;36.40;47.80
13052;DHT22;6592;47.484;9.726;2023-06-24T11:50:32;36.30;51.60
13052;DHT22;6592;47.484;9.726;2023-06-24T11:53:01;36.10;51.40
13052;DHT22;6592;47.484;9.726;2023-06-24T11:55:32;35.90;51.20
13052;DHT22;6592;47.484;9.726;2023-06-24T11:58:03;35.80;52.20
13052;DHT22;6592;47.484;9.726;2023-06-24T12:00:36;35.50;52.50
13052;DHT22;6592;47.484;9.726;2023-06-24T12:03:09;35.40;52.50
13052;DHT22;6592;47.484;9.726;2023-06-24T12:05:40;35.40;52.90
13052;DHT22;6592;47.484;9.726;2023-06-24T12:08:13;35.20;51.60
13052;DHT22;6592;47.484;9.726;2023-06-24T12:10:44;34.90;50.80
13052;DHT22;6592;47.484;9.726;2023-06-24T12:13:13;34.30;50.70
13052;DHT22;6592;47.484;9.726;2023-06-24T12:15:41;34.00;54.30
13052;DHT22;6592;47.484;9.726;2023-06-24T12:18:12;33.70;53.80
13052;DHT22;6592;47.484;9.726;2023-06-24T12:20:43;33.60;54.60
13052;DHT22;6592;47.484;9.726;2023-06-24T12:23:12;33.30;57.20
13052;DHT22;6592;47.484;9.726;2023-06-24T12:25:42;33.10;56.10
13052;DHT22;6592;47.484;9.726;2023-06-24T12:28:10;32.90;58.10
13052;DHT22;6592;47.484;9.726;2023-06-24T12:30:39;32.70;57.00
13052;DHT22;6592;47.484;9.726;2023-06-24T12:33:07;32.40;54.40
13052;DHT22;6592;47.484;9.726;2023-06-24T12:35:38;32.00;55.10
13052;DHT22;6592;47.484;9.726;2023-06-24T12:38:08;31.80;56.60
13052;DHT22;6592;47.484;9.726;2023-06-24T12:40:39;31.60;55.90
13052;DHT22;6592;47.484;9.726;2023-06-24T12:43:08;31.20;58.10
13052;DHT22;6592;47.484;9.726;2023-06-24T12:45:37;31.20;58.70
13052;DHT22;6592;47.484;9.726;2023-06-24T12:48:06;31.10;57.20
13052;DHT22;6592;47.484;9.726;2023-06-24T12:50:40;31.00;58.80
13052;DHT22;6592;47.484;9.726;2023-06-24T12:53:10;31.00;59.60
13052;DHT22;6592;47.484;9.726;2023-06-24T12:55:42;31.00;59.90
13052;DHT22;6592;47.484;9.726;2023-06-24T12:58:13;31.00;60.50
13052;DHT22;6592;47.484;9.726;2023-06-24T13:00:44;30.90;61.80
13052;DHT22;6592;47.484;9.726;2023-06-24T13:03:15;30.80;61.80
13052;DHT22;6592;47.484;9.726;2023-06-24T13:05:50;30.80;61.20
13052;DHT22;6592;47.484;9.726;2023-06-24T13:08:19;30.80;59.80
13052;DHT22;6592;47.484;9.726;2023-06-24T13:10:48;30.70;61.80
13052;DHT22;6592;47.484;9.726;2023-06-24T13:13:17;30.80;60.90
13052;DHT22;6592;47.484;9.726;2023-06-24T13:15:46;30.80;57.40
13052;DHT22;6592;47.484;9.726;2023-06-24T13:18:15;30.70;59.90
13052;DHT22;6592;47.484;9.726;2023-06-24T13:20:49;30.70;59.60
13052;DHT22;6592;47.484;9.726;2023-06-24T13:23:33;30.80;64.40
13052;DHT22;6592;47.484;9.726;2023-06-24T13:26:06;30.70;61.40
13052;DHT22;6592;47.484;9.726;2023-06-24T13:28:35;30.70;62.10
13052;DHT22;6592;47.484;9.726;2023-06-24T13:31:04;30.80;63.40
13052;DHT22;6592;47.484;9.726;2023-06-24T13:33:34;30.80;63.40
13052;DHT22;6592;47.484;9.726;2023-06-24T13:36:05;30.80;62.90
13052;DHT22;6592;47.484;9.726;2023-06-24T13:38:35;30.70;59.60
13052;DHT22;6592;47.484;9.726;2023-06-24T13:41:04;30.60;60.80
13052;DHT22;6592;47.484;9.726;2023-06-24T13:43:33;30.60;60.80
13052;DHT22;6592;47.484;9.726;2023-06-24T13:46:02;30.50;61.50
13052;DHT22;6592;47.484;9.726;2023-06-24T13:48:32;30.50;62.60
13052;DHT22;6592;47.484;9.726;2023-06-24T13:51:02;30.50;62.00
13052;DHT22;6592;47.484;9.726;2023-06-24T13:53:31;30.50;62.10
13052;DHT22;6592;47.484;9.726;2023-06-24T13:56:00;30.50;61.80
13052;DHT22;6592;47.484;9.726;2023-06-24T13:58:29;30.40;62.60
13052;DHT22;6592;47.484;9.726;2023-06-24T14:00:58;30.50;64.10
13052;DHT22;6592;47.484;9.726;2023-06-24T14:03:28;30.50;61.90
13052;DHT22;6592;47.484;9.726;2023-06-24T14:05:56;30.60;63.70
13052;DHT22;6592;47.484;9.726;2023-06-24T14:08:29;30.50;63.30
13052;DHT22;6592;47.484;9.726;2023-06-24T14:10:59;30.50;60.80
13052;DHT22;6592;47.484;9.726;2023-06-24T14:13:31;30.40;61.50
13052;DHT22;6592;47.484;9.726;2023-06-24T14:15:59;30.30;61.10
13052;DHT22;6592;47.484;9.726;2023-06-24T14:18:29;30.30;62.40
13052;DHT22;6592;47.484;9.726;2023-06-24T14:20:59;30.30;59.70
13052;DHT22;6592;47.484;9.726;2023-06-24T14:23:30;30.30;60.50
13052;DHT22;6592;47.484;9.726;2023-06-24T14:26:03;30.30;63.70
13052;DHT22;6592;47.484;9.726;2023-06-24T14:28:34;30.30;59.90
13052;DHT22;6592;47.484;9.726;2023-06-24T14:31:02;30.30;63.40
13052;DHT22;6592;47.484;9.726;2023-06-24T14:33:31;30.30;59.80
13052;DHT22;6592;47.484;9.726;2023-06-24T14:36:00;30.40;62.70
13052;DHT22;6592;47.484;9.726;2023-06-24T14:38:31;30.40;63.80
13052;DHT22;6592;47.484;9.726;2023-06-24T14:41:00;30.40;64.30
13052;DHT22;6592;47.484;9.726;2023-06-24T14:43:30;30.30;60.50
13052;DHT22;6592;47.484;9.726;2023-06-24T14:45:59;30.30;62.80
13052;DHT22;6592;47.484;9.726;2023-06-24T14:48:28;30.10;62.20
13052;DHT22;6592;47.484;9.726;2023-06-24T14:50:57;30.10;60.90
13052;DHT22;6592;47.484;9.726;2023-06-24T14:53:26;30.10;63.30
13052;DHT22;6592;47.484;9.726;2023-06-24T14:55:57;30.10;62.80
13052;DHT22;6592;47.484;9.726;2023-06-24T14:58:26;30.10;58.40
13052;DHT22;6592;47.484;9.726;2023-06-24T15:00:56;30.10;59.90
13052;DHT22;6592;47.484;9.726;2023-06-24T15:03:26;30.00;61.50
13052;DHT22;6592;47.484;9.726;2023-06-24T15:05:54;30.00;61.60
13052;DHT22;6592;47.484;9.726;2023-06-24T15:08:23;30.10;62.70
13052;DHT22;6592;47.484;9.726;2023-06-24T15:10:55;30.10;63.00
13052;DHT22;6592;47.484;9.726;2023-06-24T15:13:24;30.10;62.00
13052;DHT22;6592;47.484;9.726;2023-06-24T15:15:53;30.10;63.50
13052;DHT22;6592;47.484;9.726;2023-06-24T15:18:25;30.00;64.10
13052;DHT22;6592;47.484;9.726;2023-06-24T15:20:57;30.00;60.70
13052;DHT22;6592;47.484;9.726;2023-06-24T15:23:26;30.00;61.60
13052;DHT22;6592;47.484;9.726;2023-06-24T15:25:57;30.00;63.30
13052;DHT22;6592;47.484;9.726;2023-06-24T15:28:25;30.00;61.60
13052;DHT22;6592;47.484;9.726;2023-06-24T15:30:55;30.00;62.40
13052;DHT22;6592;47.484;9.726;2023-06-24T15:33:25;30.00;62.40
13052;DHT22;6592;47.484;9.726;2023-06-24T15:35:54;30.00;62.00
13052;DHT22;6592;47.484;9.726;2023-06-24T15:38:24;29.90;61.70
13052;DHT22;6592;47.484;9.726;2023-06-24T15:40:53;29.80;61.70
13052;DHT22;6592;47.484;9.726;2023-06-24T15:43:24;29.80;64.00
13052;DHT22;6592;47.484;9.726;2023-06-24T15:45:52;29.60;62.00
13052;DHT22;6592;47.484;9.726;2023-06-24T15:48:23;29.60;60.90
13052;DHT22;6592;47.484;9.726;2023-06-24T15:50:51;29.50;60.10
13052;DHT22;6592;47.484;9.726;2023-06-24T15:53:20;29.40;61.10
13052;DHT22;6592;47.484;9.726;2023-06-24T15:55:49;29.40;62.80
13052;DHT22;6592;47.484;9.726;2023-06-24T15:58:17;29.30;61.70
13052;DHT22;6592;47.484;9.726;2023-06-24T16:00:48;29.30;61.50
13052;DHT22;6592;47.484;9.726;2023-06-24T16:03:17;29.20;61.50
13052;DHT22;6592;47.484;9.726;2023-06-24T16:05:46;29.10;60.00